CPX664 Details

Departure: Palm Beach International Airport (KPBI)
Arrival: Miami International Airport (KMIA)
Route: BUFIT2 HILEY HILEY7


Current Weather Information
KPBI 250253Z 07009KT 10SM SCT034 26/17 A3012 RMK AO2 SLP197 T02560172 53009
KMIA 250253Z 07010KT 10SM FEW039 26/18 A3009 RMK AO2 SLP190 T02610178 53011